createdAt,value
2019-03-04T00:05:36.504Z,43
2019-03-04T00:15:39.947Z,43
2019-03-04T00:25:43.358Z,41
2019-03-04T00:35:46.811Z,41
2019-03-04T00:45:50.257Z,40
2019-03-04T00:55:53.713Z,42
2019-03-04T01:05:57.157Z,41
2019-03-04T01:16:00.610Z,41
2019-03-04T01:26:04.052Z,41
2019-03-04T01:36:07.482Z,42
2019-03-04T01:46:10.903Z,43
2019-03-04T01:56:14.384Z,43
2019-03-04T02:06:17.800Z,45
2019-03-04T02:16:21.212Z,42
2019-03-04T02:26:24.651Z,41
2019-03-04T02:36:28.122Z,42
2019-03-04T02:46:31.569Z,40
2019-03-04T02:56:36.068Z,40
2019-03-04T03:06:39.540Z,40
2019-03-04T03:16:42.984Z,41
2019-03-04T03:26:46.442Z,42
2019-03-04T03:36:49.923Z,42
2019-03-04T03:46:53.376Z,41
2019-03-04T03:56:56.793Z,41
2019-03-04T04:07:00.256Z,41
2019-03-04T04:17:03.693Z,42
2019-03-04T04:27:07.145Z,41
2019-03-04T04:37:10.600Z,42
2019-03-04T04:47:14.054Z,42
2019-03-04T04:57:17.475Z,42
2019-03-04T05:07:20.910Z,45
2019-03-04T05:17:24.445Z,45
2019-03-04T05:27:27.904Z,43
2019-03-04T05:37:31.364Z,45
2019-03-04T05:47:34.811Z,46
2019-03-04T05:57:38.276Z,46
2019-03-04T06:07:41.728Z,47
2019-03-04T06:17:45.160Z,47
2019-03-04T06:27:48.576Z,50
2019-03-04T06:37:51.977Z,49
2019-03-04T06:47:55.429Z,48
2019-03-04T06:57:58.847Z,52
2019-03-04T07:08:02.298Z,51
2019-03-04T07:18:05.722Z,46
2019-03-04T07:28:09.174Z,46
2019-03-04T07:38:12.587Z,45
2019-03-04T07:48:16.012Z,44
2019-03-04T07:58:20.445Z,42
2019-03-04T08:08:23.891Z,39
2019-03-04T08:18:27.388Z,38
2019-03-04T08:28:30.830Z,38
2019-03-04T08:38:34.282Z,38
2019-03-04T08:48:37.716Z,38
2019-03-04T08:58:41.483Z,38
2019-03-04T09:08:44.916Z,39
2019-03-04T09:18:48.362Z,38
2019-03-04T09:28:51.805Z,38
2019-03-04T09:38:55.256Z,37
2019-03-04T09:48:58.718Z,37
2019-03-04T09:59:02.162Z,37
2019-03-04T10:09:05.617Z,38
2019-03-04T10:19:09.050Z,37
2019-03-04T10:29:12.454Z,38
2019-03-04T10:39:22.790Z,38
2019-03-04T10:49:26.255Z,37
2019-03-04T10:59:29.683Z,38
2019-03-04T11:09:33.119Z,38
2019-03-04T11:19:36.529Z,38
2019-03-04T11:29:40.190Z,38
2019-03-04T11:39:43.619Z,37
2019-03-04T11:49:47.028Z,38
2019-03-04T11:59:50.475Z,38
2019-03-04T12:09:53.926Z,38
2019-03-04T12:19:57.323Z,38
2019-03-04T12:30:01.252Z,38
2019-03-04T12:40:04.713Z,38
2019-03-04T12:50:08.180Z,38
2019-03-04T13:00:11.639Z,38
2019-03-04T13:10:15.068Z,38
2019-03-04T13:20:18.514Z,38
2019-03-04T13:30:21.952Z,38
2019-03-04T13:40:25.379Z,39
2019-03-04T13:50:28.840Z,39
2019-03-04T14:00:32.304Z,39
2019-03-04T14:10:35.980Z,37
2019-03-04T14:20:39.415Z,37
2019-03-04T14:30:42.877Z,38
2019-03-04T14:40:46.298Z,37
2019-03-04T14:50:49.696Z,38
2019-03-04T15:00:53.117Z,38
2019-03-04T15:10:56.560Z,38
2019-03-04T15:21:00.297Z,38
2019-03-04T15:31:03.752Z,38
2019-03-04T15:41:07.166Z,38
2019-03-04T15:51:10.599Z,38
2019-03-04T16:01:14.041Z,38
2019-03-04T16:11:17.487Z,38
2019-03-04T16:21:20.923Z,38
2019-03-04T16:31:24.362Z,38
2019-03-04T16:41:27.792Z,38
2019-03-04T16:51:31.211Z,38
2019-03-04T17:01:34.675Z,38
2019-03-04T17:11:38.143Z,39
2019-03-04T17:21:41.586Z,39
2019-03-04T17:31:45.003Z,38
2019-03-04T17:41:48.468Z,38
2019-03-04T17:51:51.927Z,39
2019-03-04T18:01:55.376Z,39
2019-03-04T18:11:58.805Z,39
2019-03-04T18:22:02.236Z,38
2019-03-04T18:32:05.694Z,38
2019-03-04T18:42:09.134Z,39
2019-03-04T18:52:12.524Z,38
2019-03-04T19:02:15.962Z,39
2019-03-04T19:12:19.366Z,38
2019-03-04T19:22:23.828Z,39
2019-03-04T19:32:27.237Z,38
2019-03-04T19:42:30.671Z,38
2019-03-04T19:52:34.099Z,38
2019-03-04T20:02:37.501Z,38
2019-03-04T20:12:40.908Z,38
2019-03-04T20:22:44.570Z,38
2019-03-04T20:32:48.014Z,38
2019-03-04T20:42:51.461Z,38
2019-03-04T20:52:54.907Z,39
2019-03-04T21:02:58.360Z,39
2019-03-04T21:13:01.816Z,38
2019-03-04T21:23:05.276Z,38
2019-03-04T21:33:08.713Z,39
2019-03-04T21:43:12.196Z,38
2019-03-04T21:53:15.645Z,38
2019-03-04T22:03:19.103Z,39
2019-03-04T22:13:22.603Z,38
2019-03-04T22:23:26.110Z,38
2019-03-04T22:33:29.583Z,38
2019-03-04T22:43:34.063Z,39
2019-03-04T22:53:37.544Z,39
2019-03-04T23:03:40.992Z,39
2019-03-04T23:13:44.453Z,39
2019-03-04T23:23:47.892Z,39
2019-03-04T23:33:51.316Z,40
2019-03-04T23:43:54.754Z,39
2019-03-04T23:53:58.201Z,39
